Time;durP1;ratioP1;P1;durP2;ratioP2;P2;SDS_P1;SDS_P2;PMS_P1;PMS_P2;Temp;Humidity;BMP_temperature;BMP_pressure;BME280_temperature;BME280_humidity;BME280_pressure;Samples;Min_cycle;Max_cycle;Signal;HPM_P1;HPM_P2
2021/09/25 00:00:00;;;;;;;5.85;1.02;;;;;;;9.18;100.00;98563.77;1708020;84;20984;-78
2021/09/25 00:02:27;;;;;;;6.33;1.10;;;;;;;9.18;100.00;98576.09;1705458;83;21831;-77
2021/09/25 00:04:53;;;;;;;5.05;1.40;;;;;;;9.18;100.00;98577.45;1702935;83;21002;-76
2021/09/25 00:07:19;;;;;;;3.37;1.00;;;;;;;9.17;100.00;98582.70;1707766;83;20910;-75
2021/09/25 00:09:46;;;;;;;3.62;0.95;;;;;;;9.16;100.00;98572.88;1697489;83;21470;-76
2021/09/25 00:12:16;;;;;;;4.62;1.30;;;;;;;9.16;100.00;98581.09;1707373;84;21001;-76
2021/09/25 00:14:43;;;;;;;5.70;1.20;;;;;;;9.17;100.00;98582.70;1708235;84;20931;-76
2021/09/25 00:17:10;;;;;;;5.03;0.80;;;;;;;9.19;100.00;98572.78;1702670;83;21442;-77
2021/09/25 00:19:37;;;;;;;3.47;1.20;;;;;;;9.18;100.00;98574.72;1685962;83;21575;-77
2021/09/25 00:22:04;;;;;;;3.12;1.00;;;;;;;9.19;100.00;98572.78;1695513;83;21480;-76
2021/09/25 00:24:31;;;;;;;2.70;0.93;;;;;;;9.19;100.00;98570.84;1707545;83;20974;-76
2021/09/25 00:26:57;;;;;;;5.00;0.90;;;;;;;9.19;100.00;98568.67;1704298;83;21580;-75
2021/09/25 00:29:23;;;;;;;5.67;1.17;;;;;;;9.18;100.00;98567.07;1700448;83;20870;-78
2021/09/25 00:31:50;;;;;;;3.85;1.20;;;;;;;9.18;100.00;98566.50;1687063;83;20949;-83
2021/09/25 00:34:16;;;;;;;3.75;1.10;;;;;;;9.17;100.00;98577.22;1699581;83;22110;-83
2021/09/25 00:36:43;;;;;;;4.25;1.45;;;;;;;9.17;100.00;98575.05;1696703;83;20894;-75
2021/09/25 00:39:10;;;;;;;5.72;1.15;;;;;;;9.14;100.00;98573.77;1707739;84;20989;-77
2021/09/25 00:41:36;;;;;;;3.50;1.35;;;;;;;9.14;100.00;98582.55;1694259;83;20945;-76
2021/09/25 00:44:03;;;;;;;5.90;1.20;;;;;;;9.13;100.00;98588.59;1696026;83;21453;-76
2021/09/25 00:46:31;;;;;;;5.50;1.25;;;;;;;9.13;100.00;98591.33;1704184;83;21720;-76
2021/09/25 00:48:58;;;;;;;3.20;0.90;;;;;;;9.15;100.00;98600.02;1689959;84;20953;-76
2021/09/25 00:51:25;;;;;;;12.35;1.42;;;;;;;9.17;100.00;98597.76;1693142;83;21480;-77
2021/09/25 00:53:51;;;;;;;4.90;1.45;;;;;;;9.17;100.00;98601.86;1707849;83;20997;-78
2021/09/25 00:56:17;;;;;;;4.72;1.10;;;;;;;9.17;100.00;98602.43;1696480;83;20945;-77
2021/09/25 00:58:44;;;;;;;5.50;1.12;;;;;;;9.17;100.00;98599.13;1686101;83;21651;-76
2021/09/25 01:01:10;;;;;;;8.28;1.00;;;;;;;9.18;100.00;98603.47;1692989;83;21009;-76
2021/09/25 01:03:37;;;;;;;4.08;1.07;;;;;;;9.18;100.00;98602.10;1697092;83;21024;-77
2021/09/25 01:06:03;;;;;;;4.17;1.30;;;;;;;9.20;100.00;98605.31;1690602;83;20966;-77
2021/09/25 01:08:29;;;;;;;6.78;1.22;;;;;;;9.22;100.00;98610.46;1686108;84;20934;-77
2021/09/25 01:10:56;;;;;;;3.00;1.25;;;;;;;9.22;100.00;98609.89;1692561;83;21686;-76
2021/09/25 01:13:23;;;;;;;6.62;1.00;;;;;;;9.23;100.00;98611.50;1703024;83;21041;-76
2021/09/25 01:15:49;;;;;;;3.90;1.10;;;;;;;9.24;100.00;98623.27;1693634;83;20988;-77
2021/09/25 01:18:16;;;;;;;5.95;1.45;;;;;;;9.25;100.00;98616.05;1705373;84;20953;-77
2021/09/25 01:20:42;;;;;;;5.03;1.55;;;;;;;9.26;100.00;98614.92;1706168;83;20977;-77
2021/09/25 01:23:09;;;;;;;4.50;1.47;;;;;;;9.27;100.00;98623.94;1698540;83;21599;-76
2021/09/25 01:25:35;;;;;;;8.30;1.87;;;;;;;9.27;100.00;98613.79;1700484;83;20890;-75
2021/09/25 01:28:03;;;;;;;2.37;1.02;;;;;;;9.27;100.00;98619.27;1686057;83;21097;-75
2021/09/25 01:30:30;;;;;;;6.00;1.35;;;;;;;9.28;100.00;98616.77;1706639;83;20906;-75
2021/09/25 01:32:58;;;;;;;4.55;1.20;;;;;;;9.27;100.00;98619.27;1698802;83;20850;-76
2021/09/25 01:35:24;;;;;;;4.10;1.10;;;;;;;9.29;100.00;98620.30;1687911;84;21533;-75
2021/09/25 01:37:52;;;;;;;3.20;1.17;;;;;;;9.28;100.00;98629.09;1703047;83;21603;-76
2021/09/25 01:40:19;;;;;;;10.82;2.72;;;;;;;9.30;100.00;98629.33;1674260;83;21005;-77
2021/09/25 01:42:45;;;;;;;3.02;1.32;;;;;;;9.30;100.00;98633.44;1687484;83;21445;-76
2021/09/25 01:45:12;;;;;;;5.25;1.32;;;;;;;9.31;100.00;98635.84;1707786;84;20893;-76
2021/09/25 01:47:39;;;;;;;2.87;1.10;;;;;;;9.32;100.00;98635.28;1704099;83;21516;-76
2021/09/25 01:50:09;;;;;;;11.50;1.10;;;;;;;9.32;100.00;98634.71;1700253;83;20989;-76
2021/09/25 01:52:36;;;;;;;5.45;1.42;;;;;;;9.31;100.00;98647.37;1704087;83;20918;-76
2021/09/25 01:55:04;;;;;;;5.95;1.32;;;;;;;9.31;100.00;98644.06;1685660;83;21063;-76
2021/09/25 01:57:30;;;;;;;4.15;1.35;;;;;;;9.31;100.00;98642.69;1685956;83;21019;-75
2021/09/25 01:59:57;;;;;;;9.58;1.55;;;;;;;9.32;100.00;98640.75;1685897;83;21319;-75
2021/09/25 02:02:23;;;;;;;2.62;1.12;;;;;;;9.30;100.00;98645.76;1689392;83;20950;-76
2021/09/25 02:04:50;;;;;;;6.90;1.37;;;;;;;9.31;100.00;98651.47;1685949;83;21000;-76
2021/09/25 02:07:17;;;;;;;3.27;1.27;;;;;;;9.29;100.00;98647.69;1685900;83;21592;-76
2021/09/25 02:09:44;;;;;;;7.90;1.25;;;;;;;9.29;100.00;98650.44;1697171;83;20902;-77
2021/09/25 02:12:11;;;;;;;5.70;1.60;;;;;;;9.29;100.00;98662.76;1693561;83;21121;-75
2021/09/25 02:14:38;;;;;;;5.65;1.85;;;;;;;9.29;100.00;98665.50;1693005;83;21000;-75
2021/09/25 02:17:05;;;;;;;7.33;1.32;;;;;;;9.28;100.00;98670.17;1702105;84;21433;-74
2021/09/25 02:19:31;;;;;;;9.08;1.40;;;;;;;9.28;100.00;98672.10;1707723;84;20946;-77
2021/09/25 02:21:58;;;;;;;9.03;1.27;;;;;;;9.28;100.00;98676.21;1689506;83;20962;-74
2021/09/25 02:24:24;;;;;;;5.22;1.47;;;;;;;9.27;100.00;98680.89;1703471;83;21671;-74
2021/09/25 02:26:51;;;;;;;4.33;1.40;;;;;;;9.28;100.00;98685.80;1704842;84;20938;-76
2021/09/25 02:29:17;;;;;;;4.12;1.20;;;;;;;9.27;100.00;98691.84;1707761;84;20969;-75
2021/09/25 02:31:43;;;;;;;7.72;1.12;;;;;;;9.27;100.00;98695.95;1693191;83;21068;-75
2021/09/25 02:34:10;;;;;;;5.47;1.47;;;;;;;9.27;100.00;98700.63;1696294;83;21046;-73
2021/09/25 02:36:36;;;;;;;5.70;1.20;;;;;;;9.26;100.00;98697.65;1698215;83;21561;-78
2021/09/25 02:39:03;;;;;;;3.08;1.05;;;;;;;9.25;100.00;98700.95;1695559;83;20949;-78
2021/09/25 02:41:30;;;;;;;4.35;1.40;;;;;;;9.26;100.00;98706.67;1700355;83;20942;-78
2021/09/25 02:43:56;;;;;;;7.05;1.27;;;;;;;9.25;100.00;98705.06;1697037;83;21088;-78
2021/09/25 02:46:23;;;;;;;9.55;1.17;;;;;;;9.24;100.00;98708.93;1703805;83;20993;-78
2021/09/25 02:48:49;;;;;;;8.68;1.00;;;;;;;9.23;100.00;98710.09;1707831;83;22113;-78
2021/09/25 02:51:16;;;;;;;5.60;0.75;;;;;;;9.22;100.00;98713.96;1700411;83;20894;-78
2021/09/25 02:53:43;;;;;;;8.95;1.30;;;;;;;9.21;100.00;98710.98;1708154;84;20898;-76
2021/09/25 02:56:11;;;;;;;5.05;1.30;;;;;;;9.19;100.00;98714.61;1707738;84;21548;-77
2021/09/25 02:58:37;;;;;;;5.08;1.35;;;;;;;9.18;100.00;98721.22;1700379;83;21024;-75
2021/09/25 03:01:04;;;;;;;7.00;1.55;;;;;;;9.17;100.00;98722.34;1698794;83;20985;-75
2021/09/25 03:03:30;;;;;;;4.28;1.15;;;;;;;9.15;100.00;98728.72;1697621;83;20949;-75
2021/09/25 03:05:57;;;;;;;4.08;1.22;;;;;;;9.16;100.00;98735.00;1694237;83;20918;-76
2021/09/25 03:08:23;;;;;;;4.95;0.95;;;;;;;9.16;100.00;98737.17;1704048;83;20937;-77
2021/09/25 03:10:50;;;;;;;6.83;1.30;;;;;;;9.14;100.00;98735.89;1707674;83;21045;-75
2021/09/25 03:13:16;;;;;;;5.47;1.17;;;;;;;9.11;100.00;98741.45;1707704;84;20987;-76
2021/09/25 03:15:43;;;;;;;4.72;1.15;;;;;;;9.09;100.00;98749.75;1688808;83;20886;-75
2021/09/25 03:18:10;;;;;;;5.17;1.20;;;;;;;9.08;100.00;98755.79;1680381;83;20870;-75
2021/09/25 03:20:36;;;;;;;3.50;1.15;;;;;;;9.07;100.00;98762.39;1691240;83;21430;-75
2021/09/25 03:23:03;;;;;;;9.73;1.50;;;;;;;9.07;100.00;98758.84;1688042;83;20970;-75
2021/09/25 03:25:29;;;;;;;3.85;1.27;;;;;;;9.07;100.00;98761.02;1707932;83;22139;-75
2021/09/25 03:27:56;;;;;;;6.33;1.20;;;;;;;9.08;100.00;98757.72;1694042;83;21155;-76
2021/09/25 03:30:23;;;;;;;3.72;1.27;;;;;;;9.07;100.00;98766.50;1697853;83;20982;-77
2021/09/25 03:32:50;;;;;;;8.58;1.37;;;;;;;9.10;100.00;98780.11;1692231;83;21544;-77
2021/09/25 03:35:16;;;;;;;6.60;1.45;;;;;;;9.10;100.00;98778.73;1694753;83;20946;-76
2021/09/25 03:37:43;;;;;;;5.17;1.30;;;;;;;9.09;100.00;98777.93;1692048;83;21000;-77
2021/09/25 03:40:12;;;;;;;5.55;1.10;;;;;;;9.09;100.00;98780.67;1707725;84;21580;-77
2021/09/25 03:42:38;;;;;;;5.33;1.40;;;;;;;9.09;100.00;98786.14;1693171;83;21536;-77
2021/09/25 03:45:07;;;;;;;2.02;0.95;;;;;;;9.08;100.00;98792.75;1693056;83;21072;-78
2021/09/25 03:47:33;;;;;;;3.98;1.10;;;;;;;9.06;100.00;98797.74;1696937;83;21174;-69
2021/09/25 03:50:00;;;;;;;3.92;1.50;;;;;;;9.05;100.00;98796.13;1708207;84;21528;-77
2021/09/25 03:52:27;;;;;;;6.00;1.25;;;;;;;9.03;100.00;98803.86;1688580;83;21060;-77
2021/09/25 03:54:53;;;;;;;7.30;1.77;;;;;;;9.02;100.00;98812.41;1698068;83;20906;-79
2021/09/25 03:57:20;;;;;;;4.10;1.35;;;;;;;9.01;100.00;98826.66;1703613;83;21599;-75
2021/09/25 03:59:46;;;;;;;4.92;1.30;;;;;;;9.01;100.00;98824.48;1690918;83;20972;-75
2021/09/25 04:02:13;;;;;;;13.05;1.70;;;;;;;8.99;100.00;98825.36;1650982;86;21663;-77
2021/09/25 04:04:39;;;;;;;5.72;1.65;;;;;;;8.97;100.00;98824.32;1629765;86;20959;-76
2021/09/25 04:07:06;;;;;;;4.35;2.00;;;;;;;8.98;100.00;98827.86;1648910;86;21027;-77
2021/09/25 04:09:33;;;;;;;7.83;1.70;;;;;;;8.97;100.00;98827.62;1651078;87;21012;-76
2021/09/25 04:11:59;;;;;;;2.22;1.02;;;;;;;8.96;100.00;98831.48;1651918;87;20943;-77
2021/09/25 04:14:25;;;;;;;8.20;1.70;;;;;;;8.94;100.00;98831.24;1651107;87;21026;-74
2021/09/25 04:16:52;;;;;;;4.55;1.35;;;;;;;8.94;100.00;98836.72;1651271;87;20982;-76
2021/09/25 04:19:19;;;;;;;5.35;1.35;;;;;;;8.93;100.00;98837.04;1707048;84;20989;-77
2021/09/25 04:21:45;;;;;;;11.10;1.45;;;;;;;8.93;100.00;98841.14;1691989;83;21504;-76
2021/09/25 04:24:12;;;;;;;8.90;1.52;;;;;;;8.93;100.00;98846.05;1687527;83;20925;-75
2021/09/25 04:26:38;;;;;;;3.67;1.17;;;;;;;8.94;100.00;98846.30;1707939;83;21509;-75
2021/09/25 04:29:05;;;;;;;8.65;1.62;;;;;;;8.95;100.00;98848.47;1708108;84;20858;-79
2021/09/25 04:31:34;;;;;;;4.53;1.30;;;;;;;8.98;100.00;98860.15;1703835;83;20987;-74
2021/09/25 04:34:02;;;;;;;8.55;1.62;;;;;;;8.98;100.00;98866.99;1694210;83;21013;-76
2021/09/25 04:36:29;;;;;;;5.78;1.50;;;;;;;9.01;100.00;98871.02;1696183;83;20954;-74
2021/09/25 04:38:55;;;;;;;5.67;1.87;;;;;;;9.02;100.00;98873.44;1694168;84;21507;-76
2021/09/25 04:41:22;;;;;;;8.30;1.62;;;;;;;9.04;100.00;98880.77;1693183;83;21009;-78
2021/09/25 04:43:49;;;;;;;7.72;1.47;;;;;;;9.05;100.00;98886.48;1697330;83;20989;-76
2021/09/25 04:46:16;;;;;;;6.33;1.67;;;;;;;9.08;100.00;98884.47;1707932;84;21394;-78
2021/09/25 04:48:42;;;;;;;3.22;1.30;;;;;;;9.10;100.00;98882.78;1699543;83;21062;-76
2021/09/25 04:51:09;;;;;;;6.40;1.40;;;;;;;9.10;100.00;98886.33;1688899;83;21426;-78
2021/09/25 04:53:46;;;;;;;5.72;1.50;;;;;;;9.11;100.00;98885.77;1688512;83;20961;-80
2021/09/25 04:56:09;;;;;;;7.30;1.60;;;;;;;9.11;100.00;98896.16;1669641;85;20905;-74
2021/09/25 04:58:39;;;;;;;5.23;1.77;;;;;;;9.11;100.00;98900.26;1703704;83;21491;-79
2021/09/25 05:01:11;;;;;;;8.30;2.10;;;;;;;9.12;100.00;98895.02;1698932;83;21253;-75
2021/09/25 05:03:44;;;;;;;6.55;2.30;;;;;;;9.12;100.00;98905.17;1707774;83;21552;-73
2021/09/25 05:06:17;;;;;;;9.13;2.10;;;;;;;9.11;100.00;98913.95;1707208;84;20936;-73
2021/09/25 05:08:48;;;;;;;7.05;1.87;;;;;;;9.12;100.00;98913.39;1712118;83;20926;-76
2021/09/25 05:11:16;;;;;;;7.70;2.15;;;;;;;9.12;100.00;98927.88;1686136;83;20854;-73
2021/09/25 05:13:48;;;;;;;9.73;1.98;;;;;;;9.14;100.00;98933.04;1661073;83;20947;-73
2021/09/25 05:16:22;;;;;;;5.33;2.00;;;;;;;9.16;100.00;98943.11;1689982;83;20901;-73
2021/09/25 05:18:51;;;;;;;5.10;1.67;;;;;;;9.19;100.00;98942.47;1653311;86;20995;-70
2021/09/25 05:21:18;;;;;;;9.60;2.67;;;;;;;9.22;100.00;98938.52;1699294;84;21167;-70
2021/09/25 05:23:54;;;;;;;7.55;1.90;;;;;;;9.28;100.00;98939.95;1684877;84;21619;-74
2021/09/25 05:26:23;;;;;;;7.87;2.22;;;;;;;9.32;100.00;98946.16;1703896;83;20914;-86
2021/09/25 05:28:56;;;;;;;6.35;1.92;;;;;;;9.38;100.00;98951.72;1700343;83;21540;-78
2021/09/25 05:31:27;;;;;;;7.75;2.20;;;;;;;9.45;100.00;98959.69;1707765;83;20961;-76
2021/09/25 05:34:00;;;;;;;8.20;2.15;;;;;;;9.51;100.00;98967.19;1695667;83;20974;-72
2021/09/25 05:36:32;;;;;;;9.05;2.47;;;;;;;9.59;100.00;98967.75;1707535;83;20910;-78
2021/09/25 05:38:58;;;;;;;10.72;2.72;;;;;;;9.67;100.00;98968.88;1690947;83;21039;-71
2021/09/25 05:41:28;;;;;;;9.08;2.58;;;;;;;9.75;100.00;98971.61;1683131;84;21689;-72
2021/09/25 05:44:02;;;;;;;8.55;1.80;;;;;;;9.80;100.00;98973.38;1700184;84;20995;-73
2021/09/25 05:46:33;;;;;;;12.37;3.22;;;;;;;9.87;100.00;98976.41;1686931;83;23063;-72
2021/09/25 05:49:07;;;;;;;12.13;2.40;;;;;;;9.94;100.00;98977.53;1680728;84;20905;-72
2021/09/25 05:51:49;;;;;;;7.55;2.25;;;;;;;10.06;100.00;98982.91;1697159;83;21585;-77
2021/09/25 05:54:21;;;;;;;8.75;2.37;;;;;;;10.20;100.00;98989.05;1706729;83;21143;-76
2021/09/25 05:56:50;;;;;;;13.38;2.40;;;;;;;10.31;100.00;98994.42;1701648;83;20883;-75
2021/09/25 05:59:22;;;;;;;8.08;2.47;;;;;;;10.40;100.00;98985.57;1696247;83;21508;-77
2021/09/25 06:01:49;;;;;;;12.43;3.87;;;;;;;10.45;100.00;98992.26;1691629;83;26427;-74
2021/09/25 06:04:22;;;;;;;9.05;2.95;;;;;;;10.48;100.00;98999.02;1681939;84;20970;-81
2021/09/25 06:06:52;;;;;;;8.00;2.02;;;;;;;10.51;100.00;99002.48;1688973;84;21555;-80
2021/09/25 06:09:22;;;;;;;11.25;2.60;;;;;;;10.57;100.00;99008.03;1707039;83;21020;-81
2021/09/25 06:11:52;;;;;;;5.90;2.27;;;;;;;10.59;100.00;99008.52;1699464;83;28175;-80
2021/09/25 06:14:20;;;;;;;14.95;2.67;;;;;;;10.64;100.00;99013.02;1702261;83;21077;-75
2021/09/25 06:16:57;;;;;;;4.92;1.72;;;;;;;10.71;100.00;99015.49;1690857;83;20937;-81
2021/09/25 06:19:26;;;;;;;11.25;1.92;;;;;;;10.80;100.00;99013.52;1686460;83;20945;-79
2021/09/25 06:22:00;;;;;;;12.20;1.87;;;;;;;10.89;100.00;99008.80;1694646;83;20930;-80
2021/09/25 06:24:28;;;;;;;8.25;2.15;;;;;;;10.99;100.00;99012.27;1691939;83;20918;-79
2021/09/25 06:26:58;;;;;;;7.10;1.80;;;;;;;11.08;100.00;99013.84;1698219;83;21465;-80
2021/09/25 06:31:56;;;;;;;9.98;1.95;;;;;;;11.31;100.00;99023.97;1679399;83;22137;-81
2021/09/25 06:34:25;;;;;;;11.57;2.15;;;;;;;11.38;100.00;99030.31;1696536;84;20957;-81
2021/09/25 06:37:01;;;;;;;8.43;1.57;;;;;;;11.40;100.00;99028.03;1677865;84;27038;-80
2021/09/25 06:39:34;;;;;;;6.17;1.62;;;;;;;11.41;100.00;99027.70;1697813;83;21025;-79
2021/09/25 06:42:05;;;;;;;6.85;1.80;;;;;;;11.41;98.94;99029.08;1640859;87;20895;-80
2021/09/25 06:44:35;;;;;;;12.53;2.55;;;;;;;11.42;100.00;99029.88;1602742;88;21059;-80
2021/09/25 06:47:08;;;;;;;8.10;2.37;;;;;;;11.44;99.99;99036.66;1637053;86;20976;-81
2021/09/25 06:49:39;;;;;;;6.35;2.30;;;;;;;11.44;100.00;99043.53;1639454;86;20948;-79
2021/09/25 06:52:17;;;;;;;8.90;2.30;;;;;;;11.45;100.00;99041.58;1645445;86;20968;-81
2021/09/25 06:54:46;;;;;;;7.62;1.92;;;;;;;11.48;100.00;99036.80;1644311;87;20937;-82
2021/09/25 06:57:20;;;;;;;7.55;2.10;;;;;;;11.51;100.00;99041.05;1625620;87;20904;-82
2021/09/25 06:59:59;;;;;;;5.22;1.70;;;;;;;11.57;99.25;99049.88;1644562;87;20911;-82
2021/09/25 07:02:34;;;;;;;7.12;1.98;;;;;;;11.59;96.12;99047.60;1647741;85;21489;-81
2021/09/25 07:05:02;;;;;;;9.23;2.62;;;;;;;11.61;97.88;99059.64;1641251;86;21003;-83
2021/09/25 07:07:31;;;;;;;10.23;2.85;;;;;;;11.65;98.25;99062.77;1619950;87;21563;-83
2021/09/25 07:10:06;;;;;;;5.97;2.42;;;;;;;11.72;96.87;99067.16;1620169;87;21057;-81
2021/09/25 07:12:33;;;;;;;10.65;2.15;;;;;;;11.79;94.70;99070.21;1639104;87;20913;-84
2021/09/25 07:15:01;;;;;;;7.40;2.05;;;;;;;11.84;96.50;99075.52;1620394;87;20947;-83
2021/09/25 07:17:32;;;;;;;6.40;1.70;;;;;;;11.91;96.71;99081.85;1639803;87;20924;-83
2021/09/25 07:20:00;;;;;;;10.82;3.08;;;;;;;11.98;96.02;99070.31;1698036;83;21022;-84
2021/09/25 07:22:33;;;;;;;8.68;2.30;;;;;;;12.03;95.01;99068.73;1704643;84;21151;-83
2021/09/25 07:25:06;;;;;;;13.28;2.52;;;;;;;12.11;95.84;99063.16;1701294;83;20991;-83
2021/09/25 07:27:37;;;;;;;6.33;1.65;;;;;;;12.20;94.93;99061.10;1700133;83;20997;-81
2021/09/25 07:30:06;;;;;;;12.05;2.87;;;;;;;12.31;93.31;99073.07;1695828;83;21000;-83
2021/09/25 07:32:33;;;;;;;13.30;1.92;;;;;;;12.35;93.28;99074.81;1697367;83;20933;-83
2021/09/25 07:35:03;;;;;;;11.43;2.70;;;;;;;12.39;91.85;99082.62;1698069;83;21763;-82
2021/09/25 07:37:36;;;;;;;20.02;3.33;;;;;;;12.44;92.42;99089.30;1682103;84;20933;-82
2021/09/25 07:40:07;;;;;;;11.03;2.75;;;;;;;12.52;92.77;99092.53;1681753;84;21139;-83
2021/09/25 07:42:40;;;;;;;16.20;3.35;;;;;;;12.52;91.19;99089.78;1682291;84;20944;-82
2021/09/25 07:45:13;;;;;;;12.45;3.02;;;;;;;12.53;90.54;99094.14;1678724;84;20956;-82
2021/09/25 07:47:48;;;;;;;11.90;2.58;;;;;;;12.65;90.29;99103.59;1682876;84;21172;-82
2021/09/25 07:50:19;;;;;;;6.83;2.17;;;;;;;12.78;89.63;99088.09;1681631;84;20928;-82
2021/09/25 07:52:56;;;;;;;7.55;2.00;;;;;;;12.94;87.57;99099.27;1674538;85;20948;-81
2021/09/25 07:55:27;;;;;;;7.22;2.27;;;;;;;13.01;87.66;99100.88;1678059;84;20997;-81
2021/09/25 07:57:54;;;;;;;7.67;2.02;;;;;;;13.05;86.32;99099.05;1686290;83;21613;-81
2021/09/25 08:00:24;;;;;;;13.08;2.40;;;;;;;13.07;85.21;99098.71;1685325;84;22197;-80
2021/09/25 08:02:52;;;;;;;7.75;2.47;;;;;;;13.13;86.54;99095.96;1689851;83;21692;-81
2021/09/25 08:05:22;;;;;;;9.93;2.05;;;;;;;13.20;84.03;99099.78;1690664;84;20949;-81
2021/09/25 08:07:55;;;;;;;8.35;2.08;;;;;;;13.30;85.46;99099.88;1688660;84;20937;-81
2021/09/25 08:10:28;;;;;;;11.20;2.98;;;;;;;13.44;84.29;99103.67;1669803;84;20927;-81
2021/09/25 08:13:00;;;;;;;7.97;2.08;;;;;;;13.58;82.71;99104.70;1672817;84;20915;-78
2021/09/25 08:15:33;;;;;;;6.47;1.90;;;;;;;13.71;83.17;99115.95;1681356;84;21522;-81
2021/09/25 08:18:05;;;;;;;9.55;2.00;;;;;;;13.83;81.10;99111.22;1677826;84;21554;-82
2021/09/25 08:20:34;;;;;;;7.10;2.33;;;;;;;13.93;84.62;99114.63;1685407;84;21008;-84
2021/09/25 08:23:06;;;;;;;14.15;2.35;;;;;;;14.07;78.83;99113.67;1710728;83;20943;-83
2021/09/25 08:25:38;;;;;;;7.72;2.52;;;;;;;14.17;81.18;99118.13;1710720;83;21269;-81
2021/09/25 08:28:06;;;;;;;12.43;3.22;;;;;;;14.28;81.79;99121.20;1708264;83;20876;-83
2021/09/25 08:30:42;;;;;;;7.80;2.12;;;;;;;14.42;79.64;99123.60;1690303;83;21076;-83
2021/09/25 08:33:14;;;;;;;11.30;2.22;;;;;;;14.48;77.76;99121.59;1687956;83;20920;-83
2021/09/25 08:35:44;;;;;;;10.55;2.00;;;;;;;14.51;81.11;99129.75;1658851;83;20912;-78
2021/09/25 08:38:16;;;;;;;12.47;2.75;;;;;;;14.64;80.26;99123.59;1697327;83;21530;-76
2021/09/25 08:40:44;;;;;;;12.47;2.35;;;;;;;14.76;80.63;99123.53;1696695;83;20977;-79
2021/09/25 08:43:23;;;;;;;11.20;2.67;;;;;;;14.86;79.00;99123.82;1698707;83;20886;-83
2021/09/25 08:45:59;;;;;;;7.55;2.27;;;;;;;15.03;77.75;99123.23;1706176;83;21007;-80
2021/09/25 08:48:32;;;;;;;13.72;1.62;;;;;;;15.19;74.50;99129.58;1708810;83;20990;-82
2021/09/25 08:51:02;;;;;;;4.58;1.42;;;;;;;15.20;75.45;99131.98;1711583;83;21159;-73
2021/09/25 08:53:30;;;;;;;8.48;1.90;;;;;;;15.14;75.70;99139.52;1704382;83;20872;-75
2021/09/25 08:55:59;;;;;;;15.45;2.35;;;;;;;14.95;76.05;99143.00;1689026;83;20960;-74
2021/09/25 08:58:28;;;;;;;10.75;1.82;;;;;;;14.68;75.87;99150.73;1711604;83;20950;-77
2021/09/25 09:00:57;;;;;;;6.83;2.42;;;;;;;14.42;75.48;99149.84;1712174;83;20955;-73
2021/09/25 09:03:46;;;;;;;9.60;3.10;;;;;;;14.24;77.33;99149.86;1714257;83;21065;-70
2021/09/25 09:06:24;;;;;;;7.95;2.42;;;;;;;14.05;76.82;99154.61;1707745;83;21555;-72
2021/09/25 09:08:57;;;;;;;6.17;2.02;;;;;;;13.91;78.95;99166.02;1705528;83;20975;-71
2021/09/25 09:11:25;;;;;;;7.50;2.30;;;;;;;13.86;77.96;99164.91;1691240;83;21012;-72
2021/09/25 09:14:00;;;;;;;6.37;2.20;;;;;;;13.85;79.26;99166.86;1669040;84;21582;-71
2021/09/25 09:16:35;;;;;;;8.35;2.67;;;;;;;13.93;79.53;99165.09;1689635;84;21144;-69
2021/09/25 09:19:08;;;;;;;5.90;1.77;;;;;;;14.04;77.42;99166.80;1668893;84;20860;-70
2021/09/25 09:21:41;;;;;;;9.05;2.33;;;;;;;14.11;77.19;99167.02;1688146;84;20968;-70
2021/09/25 09:24:15;;;;;;;10.28;3.33;;;;;;;14.23;77.61;99173.09;1669822;84;21019;-73
2021/09/25 09:26:42;;;;;;;7.70;2.40;;;;;;;14.43;76.68;99168.81;1673989;84;21010;-72
2021/09/25 09:29:15;;;;;;;12.53;2.10;;;;;;;14.63;73.14;99172.52;1702916;84;21163;-73
2021/09/25 09:31:50;;;;;;;9.90;2.10;;;;;;;14.79;73.11;99162.31;1692335;84;20921;-71
2021/09/25 09:34:20;;;;;;;6.28;1.82;;;;;;;14.96;73.24;99170.06;1671445;83;21001;-73
2021/09/25 09:36:58;;;;;;;6.58;2.08;;;;;;;15.18;75.60;99171.63;1690053;83;20882;-74
2021/09/25 09:39:30;;;;;;;9.65;2.33;;;;;;;15.59;70.18;99169.53;1675659;84;20900;-74
2021/09/25 09:42:05;;;;;;;7.95;2.20;;;;;;;16.01;69.22;99172.48;1681151;83;21522;-71
2021/09/25 09:44:41;;;;;;;10.08;3.12;;;;;;;16.20;65.64;99177.23;1629443;87;20912;-71
2021/09/25 09:47:18;;;;;;;8.85;2.75;;;;;;;16.01;67.19;99170.30;1632683;86;21038;-72
2021/09/25 09:49:54;;;;;;;8.25;2.10;;;;;;;15.80;69.09;99167.84;1633317;86;21496;-72
2021/09/25 09:52:28;;;;;;;11.43;1.98;;;;;;;15.70;68.73;99163.66;1651955;85;21057;-73
2021/09/25 09:55:02;;;;;;;10.88;3.02;;;;;;;15.57;69.21;99153.88;1608446;86;21131;-73
2021/09/25 09:57:29;;;;;;;9.85;3.20;;;;;;;15.44;68.69;99141.27;1673072;85;20936;-72
2021/09/25 09:59:59;;;;;;;10.20;3.50;;;;;;;15.37;70.46;99153.53;1688294;83;21002;-71
2021/09/25 10:02:26;;;;;;;9.15;3.05;;;;;;;15.29;68.58;99145.64;1708577;83;20884;-71
2021/09/25 10:04:56;;;;;;;7.87;2.20;;;;;;;15.22;70.37;99155.14;1712943;83;20939;-71
2021/09/25 10:07:30;;;;;;;12.65;2.17;;;;;;;15.23;71.81;99150.41;1690021;83;21082;-70
2021/09/25 10:10:00;;;;;;;8.20;2.17;;;;;;;15.23;72.35;99140.73;1710261;83;28627;-70
2021/09/25 10:12:31;;;;;;;7.42;1.75;;;;;;;15.24;71.62;99139.57;1712444;83;21479;-71
2021/09/25 10:15:01;;;;;;;7.35;2.30;;;;;;;15.20;70.37;99145.81;1713822;83;21456;-71
2021/09/25 10:17:31;;;;;;;11.68;2.22;;;;;;;15.10;72.07;99142.77;1710334;83;21546;-71
2021/09/25 10:20:00;;;;;;;12.50;2.00;;;;;;;15.02;72.56;99139.02;1706992;83;21533;-71
2021/09/25 10:22:29;;;;;;;8.00;2.33;;;;;;;14.96;70.02;99141.84;1711727;83;20947;-72
2021/09/25 10:25:00;;;;;;;5.53;1.75;;;;;;;14.87;70.10;99142.59;1710170;83;20880;-72
2021/09/25 10:27:40;;;;;;;10.32;2.17;;;;;;;14.78;70.24;99144.70;1688966;83;20947;-72
2021/09/25 10:30:13;;;;;;;9.58;1.60;;;;;;;14.75;71.71;99141.27;1711551;83;20979;-72
2021/09/25 10:32:55;;;;;;;12.60;2.87;;;;;;;14.80;72.60;99138.25;1684568;83;22230;-71
2021/09/25 10:35:27;;;;;;;7.90;2.62;;;;;;;14.85;72.85;99155.95;1684423;84;20940;-72
2021/09/25 10:38:02;;;;;;;11.53;2.80;;;;;;;14.90;72.49;99150.75;1670032;84;21500;-72
2021/09/25 10:40:37;;;;;;;9.35;2.20;;;;;;;14.93;72.26;99152.23;1655263;84;20999;-72
2021/09/25 10:43:27;;;;;;;12.73;3.08;;;;;;;14.97;73.01;99154.51;1684832;84;21455;-72
2021/09/25 10:46:03;;;;;;;8.68;1.77;;;;;;;15.02;72.25;99149.30;1662685;84;21031;-72
2021/09/25 10:48:34;;;;;;;14.20;2.40;;;;;;;15.02;72.04;99147.92;1665666;84;20917;-72
2021/09/25 10:51:09;;;;;;;7.80;2.20;;;;;;;14.97;70.37;99150.94;1666330;85;21142;-70
2021/09/25 10:53:50;;;;;;;14.50;2.50;;;;;;;14.89;71.33;99156.85;1686110;84;20941;-72
2021/09/25 10:56:26;;;;;;;9.80;2.10;;;;;;;14.86;70.66;99152.03;1682675;84;20885;-70
2021/09/25 10:59:11;;;;;;;8.75;2.22;;;;;;;14.83;70.30;99144.45;1696927;83;21180;-70
2021/09/25 11:01:42;;;;;;;15.25;6.05;;;;;;;14.88;72.06;99143.39;1712435;83;20959;-71
2021/09/25 11:04:29;;;;;;;21.90;4.83;;;;;;;15.09;71.88;99150.84;1707386;82;20991;-71
2021/09/25 11:07:08;;;;;;;8.78;3.05;;;;;;;15.30;70.25;99151.39;1680196;84;21654;-71
2021/09/25 11:09:46;;;;;;;6.85;2.42;;;;;;;15.37;70.29;99151.58;1697541;83;21051;-71
2021/09/25 11:12:15;;;;;;;15.78;3.30;;;;;;;15.33;68.44;99140.20;1710119;83;21536;-70
2021/09/25 11:14:56;;;;;;;13.00;2.60;;;;;;;15.22;68.49;99139.93;1710017;83;20967;-70
2021/09/25 11:17:33;;;;;;;15.50;2.65;;;;;;;15.09;68.97;99128.73;1708218;83;21491;-70
2021/09/25 11:20:09;;;;;;;11.10;2.37;;;;;;;15.05;69.31;99134.16;1679348;84;21012;-70
2021/09/25 11:22:44;;;;;;;14.70;3.12;;;;;;;15.03;69.65;99130.95;1671380;84;21012;-71
2021/09/25 11:25:21;;;;;;;8.95;2.75;;;;;;;15.09;70.23;99132.87;1690401;84;21188;-70
2021/09/25 11:27:51;;;;;;;14.30;2.85;;;;;;;15.09;68.87;99133.67;1695777;84;21032;-71
2021/09/25 11:30:24;;;;;;;10.32;2.50;;;;;;;15.13;69.25;99124.89;1697387;83;20948;-71
2021/09/25 11:33:02;;;;;;;17.42;2.90;;;;;;;15.24;70.41;99129.89;1692751;84;21078;-72
2021/09/25 11:35:37;;;;;;;8.63;2.60;;;;;;;15.43;69.51;99139.66;1705110;83;21020;-71
2021/09/25 11:38:10;;;;;;;13.28;3.35;;;;;;;15.69;67.86;99131.61;1694383;83;21477;-70
2021/09/25 11:40:49;;;;;;;8.90;2.47;;;;;;;15.92;65.48;99124.83;1705636;84;20949;-70
2021/09/25 11:43:21;;;;;;;14.63;3.27;;;;;;;16.06;65.58;99127.11;1696472;83;20905;-72
2021/09/25 11:45:50;;;;;;;10.68;2.90;;;;;;;16.19;65.96;99127.17;1696043;83;20987;-71